Delaware County Johnson Field
KMIE : now visible

Airfield :











YOU CAN JOIN US ON...

 
LOGIN :

Register | Disclaimer

   EN    FR    IT 

 









Legend :    VFR   Marginal VFR   IFR   Intensive IFR   Very Intensive IFR
Visi :
Ceiling :
>= 8 km
>= 3000ft
5 to 8 km
1000 to 3000 ft
1500m to 5 km
500 to 1000 ft
800 to 1500m
200 to 500 ft
< 800m
< 200 ft
Symbols :   Thunderstorms  Fog  Heavy snow  Heavy precipitations  Wind > 20 kt






- Airport Elevation : 937 ft
- IATA code : MIE


KMIE - Delaware County Johnson Field

CURRENT METAR :
  • 210212Z AUTO 15014G23KT 4SM RA BR SCT004 BKN055 OVC075 12/11 A3003 RMK AO2 LTG DSNT ALQDS P0007 T01220106

EXPIRED METARs :
  • 210153Z 14008KT 5SM RA BR BKN004 OVC012 12/10 A3007 RMK AO2 LTG DSNT SE-SW SLP182 P0008 T01170100
  • 210053Z 07009KT 3SM -RA BR OVC003 11/09 A3011 RMK AO2 LTG DSNT N AND NE RAB2354 PRESFR SLP196 P0013 T01110094
  • 210041Z 34011KT 3SM RA BR OVC003 12/09 A3015 RMK AO2 LTG DSNT NW-NE RAB2354 P0011 T01170094
  • 210031Z 08003KT 2 1/2SM RA BR OVC003 12/09 A3013 RMK AO2 LTG DSNT NW-NE RAB2354 P0009 T01170094
  • 210016Z 11003KT 2SM VCTS RA BR OVC003 12/09 A3013 RMK AO2 LTG DSNT W-NE RAB2354 P0004 T01170094
  • 210005Z 12004KT 2 1/2SM -RA BR OVC003 11/09 A3013 RMK AO2 LTG DSNT W-N RAB2354 P0001 T01110094
  • 202353Z 11006KT 1 1/2SM BR OVC003 11/09 A3013 RMK AO2 LTG DSNT W-N SLP201 T01110094 10111 20100 57003

TAF N/A
KZID FIR / North America



MET'MAP, your aeronautical weather chart ! - Copyright ORBIFLY December 2007 - Disclaimer

ORBIFLY MET'MAP TEAM :

Programming & Development : Alexandra Zaïnal
Concept & original design : Baudouin d'Aumeries
Assistance for programming : Marc-Olivier Méhu
Technical & hardware support : Manuel Goepfert

Contact : metmap@orbifly.com




SOURCES & CREDITS :

   NOAA       Earth
Advisory